Time;durP1;ratioP1;P1;durP2;ratioP2;P2;SDS_P1;SDS_P2;PMS_P1;PMS_P2;Temp;Humidity;BMP_temperature;BMP_pressure;BME280_temperature;BME280_humidity;BME280_pressure;Samples;Min_cycle;Max_cycle;Signal;HPM_P1;HPM_P2
2022/01/08 00:01:53;;;;;;;1.80;1.15;;;;;;;1.42;89.59;98355.19;4993279;28;20340;-75
2022/01/08 00:04:19;;;;;;;2.47;1.23;;;;;;;1.44;89.76;98357.66;4993745;28;20034;-75
2022/01/08 00:06:44;;;;;;;2.80;1.10;;;;;;;1.52;89.67;98361.25;4992830;28;20033;-75
2022/01/08 00:09:09;;;;;;;2.08;1.30;;;;;;;1.47;88.54;98344.06;4993984;28;20651;-75
2022/01/08 00:11:35;;;;;;;2.65;1.20;;;;;;;1.42;88.21;98319.69;4991829;28;20036;-75
2022/01/08 00:14:04;;;;;;;4.60;1.30;;;;;;;1.45;88.56;98327.38;4994012;28;20032;-74
2022/01/08 00:16:33;;;;;;;3.13;1.20;;;;;;;1.59;87.85;98336.59;4995152;28;20564;-74
2022/01/08 00:18:58;;;;;;;1.95;1.00;;;;;;;1.50;87.11;98304.56;4995397;28;20030;-75
2022/01/08 00:21:24;;;;;;;3.42;1.20;;;;;;;1.61;85.73;98302.63;4994008;28;20022;-74
2022/01/08 00:23:49;;;;;;;1.88;0.93;;;;;;;1.44;86.11;98283.03;4995021;28;20053;-74
2022/01/08 00:26:14;;;;;;;2.13;1.05;;;;;;;1.63;84.89;98290.00;4990593;28;20495;-75
2022/01/08 00:28:40;;;;;;;1.77;0.88;;;;;;;1.69;84.82;98281.34;4993006;28;20522;-74
2022/01/08 00:31:09;;;;;;;3.00;1.23;;;;;;;1.66;85.11;98271.81;4994731;28;20050;-74
2022/01/08 00:33:35;;;;;;;1.50;1.00;;;;;;;1.74;84.96;98290.53;4978354;28;20095;-75
2022/01/08 00:36:00;;;;;;;2.83;0.80;;;;;;;1.75;84.31;98270.84;4985861;28;20304;-75
2022/01/08 00:38:25;;;;;;;1.88;0.80;;;;;;;1.75;84.45;98268.19;4995289;28;20084;-75
2022/01/08 00:40:51;;;;;;;2.88;0.77;;;;;;;1.90;84.49;98267.59;4992297;28;20403;-75
2022/01/08 00:43:16;;;;;;;2.05;0.70;;;;;;;2.01;83.80;98272.63;4991464;28;20400;-75
2022/01/08 00:45:41;;;;;;;1.98;0.70;;;;;;;1.96;81.82;98259.78;4993890;28;20392;-74
2022/01/08 00:48:07;;;;;;;3.35;0.60;;;;;;;1.98;82.21;98244.44;4993039;28;20435;-75
2022/01/08 00:50:32;;;;;;;2.60;0.80;;;;;;;2.06;81.93;98261.47;4992454;28;20037;-75
2022/01/08 00:52:58;;;;;;;4.07;0.90;;;;;;;2.01;80.44;98250.44;4989984;28;20532;-75
2022/01/08 00:55:23;;;;;;;2.45;0.73;;;;;;;2.08;79.66;98254.13;4973655;28;20022;-76
2022/01/08 00:57:49;;;;;;;1.58;0.73;;;;;;;2.06;79.86;98232.13;4976820;28;20027;-76
2022/01/08 01:00:14;;;;;;;1.55;0.70;;;;;;;2.03;80.05;98222.59;4984722;28;20443;-76
2022/01/08 01:02:40;;;;;;;2.10;0.73;;;;;;;2.09;80.68;98245.13;4993679;28;20022;-76
2022/01/08 01:05:07;;;;;;;3.67;0.80;;;;;;;2.14;79.40;98242.81;4993382;28;20065;-76
2022/01/08 01:07:32;;;;;;;1.17;0.80;;;;;;;2.15;79.37;98239.97;4988915;28;20130;-76
2022/01/08 01:09:58;;;;;;;3.45;1.10;;;;;;;2.08;80.34;98244.28;4990949;28;20126;-76
2022/01/08 01:12:23;;;;;;;4.15;1.05;;;;;;;2.10;80.02;98236.13;4990556;28;20038;-76
2022/01/08 01:14:49;;;;;;;2.08;1.00;;;;;;;2.01;80.52;98215.75;4982558;28;20026;-76
2022/01/08 01:17:14;;;;;;;2.55;0.95;;;;;;;2.14;79.79;98232.97;4983390;28;20053;-76
2022/01/08 01:19:39;;;;;;;3.75;1.25;;;;;;;2.19;80.31;98229.81;4991720;28;20545;-76
2022/01/08 01:22:05;;;;;;;0.88;0.70;;;;;;;2.22;80.00;98221.47;4993494;28;20415;-77
2022/01/08 01:24:32;;;;;;;1.73;0.80;;;;;;;2.09;79.77;98197.09;4981453;28;20388;-76
2022/01/08 01:29:48;;;;;;;2.35;1.10;;;;;;;2.14;78.51;98200.09;4991593;28;20033;-76
2022/01/08 01:48:25;;;;;;;2.95;0.70;;;;;;;2.22;79.66;98169.94;4972840;28;20042;-76
2022/01/08 01:50:51;;;;;;;1.88;0.70;;;;;;;2.23;80.31;98169.78;4971663;28;20026;-76
2022/01/08 01:53:16;;;;;;;3.05;0.63;;;;;;;2.28;79.52;98153.25;4974985;28;20037;-76
2022/01/08 01:55:43;;;;;;;1.52;0.65;;;;;;;2.33;79.87;98146.44;4985425;28;20389;-76
2022/01/08 01:58:12;;;;;;;0.80;0.70;;;;;;;2.32;79.00;98118.03;4985302;28;20080;-76
2022/01/08 02:00:37;;;;;;;3.55;0.90;;;;;;;2.49;78.44;98126.03;4985180;28;20124;-76
2022/01/08 02:03:03;;;;;;;1.02;0.60;;;;;;;2.40;78.42;98112.69;4988090;28;20042;-76
2022/01/08 02:05:28;;;;;;;1.52;0.73;;;;;;;2.45;78.03;98100.69;4989874;28;20157;-76
2022/01/08 02:07:55;;;;;;;1.27;0.52;;;;;;;2.45;78.65;98095.34;4982830;28;20037;-76
2022/01/08 02:10:22;;;;;;;1.05;0.65;;;;;;;2.58;77.50;98101.00;4980032;28;20022;-76
2022/01/08 02:12:47;;;;;;;1.65;0.50;;;;;;;2.40;78.36;98063.81;4988305;28;20058;-76
2022/01/08 02:15:12;;;;;;;1.20;0.68;;;;;;;2.54;77.64;98078.31;4988980;28;20108;-76
2022/01/08 02:17:38;;;;;;;2.47;0.70;;;;;;;2.48;78.21;98073.66;4990403;28;20157;-75
2022/01/08 02:20:04;;;;;;;2.70;0.90;;;;;;;2.49;77.80;98067.28;4989620;28;20058;-76
2022/01/08 02:22:29;;;;;;;1.23;0.60;;;;;;;2.54;77.54;98055.13;4989127;28;20041;-76
2022/01/08 02:24:55;;;;;;;3.08;0.80;;;;;;;2.49;77.16;98036.13;4985163;28;20027;-76
2022/01/08 02:27:21;;;;;;;1.20;0.68;;;;;;;2.48;77.74;98033.59;4977014;28;20197;-76
2022/01/08 02:29:49;;;;;;;1.95;0.82;;;;;;;2.45;77.57;98028.63;4986948;28;20129;-75
2022/01/08 02:32:19;;;;;;;0.70;0.70;;;;;;;2.52;78.32;98037.63;4981640;28;20029;-76
2022/01/08 02:34:45;;;;;;;;;;;;;;;2.50;78.65;98037.78;4989337;28;20030;-76
2022/01/08 02:37:10;;;;;;;1.67;0.70;;;;;;;2.50;79.05;98034.28;5005558;28;19910;-75
2022/01/08 02:39:42;;;;;;;1.58;0.82;;;;;;;2.47;79.58;98031.94;5013546;28;20020;-75
2022/01/08 02:42:11;;;;;;;2.35;0.70;;;;;;;2.42;79.53;98027.94;5008613;28;20015;-75
2022/01/08 02:44:37;;;;;;;2.63;0.95;;;;;;;2.37;80.54;98024.94;5012942;28;20041;-75
2022/01/08 02:47:03;;;;;;;2.20;0.80;;;;;;;2.30;81.15;98018.63;5012226;28;20022;-74
2022/01/08 02:49:32;;;;;;;2.42;0.90;;;;;;;2.27;81.90;98026.97;5012342;28;20074;-74
2022/01/08 02:51:58;;;;;;;1.30;0.93;;;;;;;2.10;83.24;98012.00;4994867;28;20026;-74
2022/01/08 02:54:23;;;;;;;2.60;1.05;;;;;;;2.09;84.60;98026.34;4989522;28;20094;-74
2022/01/08 02:56:49;;;;;;;1.23;0.82;;;;;;;1.94;85.58;97988.84;4985515;28;20050;-74
2022/01/08 02:59:16;;;;;;;1.55;0.80;;;;;;;1.92;86.47;98005.03;4971446;28;20485;-74
2022/01/08 03:01:42;;;;;;;3.22;0.95;;;;;;;1.63;87.94;97983.38;4984088;28;20034;-77
2022/01/08 03:04:08;;;;;;;5.38;1.00;;;;;;;1.64;89.44;98009.03;4983211;28;20026;-77
2022/01/08 03:06:34;;;;;;;2.00;0.98;;;;;;;1.53;90.69;98000.34;4994228;28;20105;-77
2022/01/08 03:08:59;;;;;;;1.42;1.02;;;;;;;1.49;92.01;97985.72;4991369;28;20522;-77
2022/01/08 03:11:25;;;;;;;4.68;1.30;;;;;;;1.40;91.94;97973.34;4991512;28;20037;-77
2022/01/08 03:13:50;;;;;;;5.78;1.20;;;;;;;1.49;91.98;97975.03;4993314;28;20204;-77
2022/01/08 03:16:17;;;;;;;3.17;1.10;;;;;;;1.40;92.06;97960.03;4975131;28;20035;-77
2022/01/08 03:18:43;;;;;;;2.08;0.98;;;;;;;1.56;91.62;97971.69;4988144;28;20030;-77
2022/01/08 03:21:16;;;;;;;3.17;1.00;;;;;;;1.45;91.42;97943.53;4991189;28;20026;-74
2022/01/08 03:23:48;;;;;;;5.22;1.27;;;;;;;1.59;91.80;97960.69;4988805;28;20117;-74
2022/01/08 03:26:15;;;;;;;3.58;1.08;;;;;;;1.62;91.29;97950.53;4990378;28;20153;-74
2022/01/08 03:28:41;;;;;;;1.92;1.00;;;;;;;1.67;90.46;97945.53;4985868;28;20033;-77
2022/01/08 03:31:06;;;;;;;4.18;1.05;;;;;;;1.68;90.39;97949.03;4991255;28;20030;-77
2022/01/08 03:33:31;;;;;;;1.67;0.90;;;;;;;1.70;89.68;97926.53;4991645;28;20026;-77
2022/01/08 03:35:57;;;;;;;3.33;1.20;;;;;;;1.77;89.23;97932.03;4991343;28;20161;-77
2022/01/08 03:38:22;;;;;;;2.42;0.90;;;;;;;1.89;88.92;97938.69;4991802;28;20172;-77
2022/01/08 03:40:48;;;;;;;1.92;1.00;;;;;;;2.01;88.69;97943.66;4991293;28;20034;-77
2022/01/08 03:43:13;;;;;;;7.55;1.00;;;;;;;1.94;88.60;97939.00;4987733;28;20540;-77
2022/01/08 03:45:38;;;;;;;2.53;0.88;;;;;;;1.90;88.21;97927.00;4992098;28;20747;-77
2022/01/08 03:50:35;;;;;;;2.95;1.17;;;;;;;2.11;89.21;97945.13;4972848;28;20034;-77
2022/01/08 03:53:01;;;;;;;2.15;1.00;;;;;;;1.98;89.60;97912.81;4976112;28;20044;-77
2022/01/08 03:55:26;;;;;;;1.30;0.77;;;;;;;2.04;90.89;97922.78;4982378;28;20031;-74
2022/01/08 03:57:51;;;;;;;0.85;0.63;;;;;;;2.06;92.48;97919.97;4982650;28;20038;-74
2022/01/08 04:00:17;;;;;;;3.10;0.90;;;;;;;2.11;92.80;97914.94;4992159;28;20110;-74
2022/01/08 04:02:42;;;;;;;4.70;1.00;;;;;;;2.01;94.08;97911.63;4992167;28;20472;-77
2022/01/08 04:05:08;;;;;;;1.10;0.80;;;;;;;2.05;96.26;97937.81;4987488;28;20034;-77
2022/01/08 04:07:33;;;;;;;2.42;0.93;;;;;;;1.82;98.66;97929.69;4990859;28;20026;-77
2022/01/08 04:09:58;;;;;;;1.52;1.10;;;;;;;1.78;100.00;97931.00;4991696;28;20031;-77
2022/01/08 04:12:36;;;;;;;1.33;0.85;;;;;;;1.64;100.00;97929.03;4993302;28;20141;-77
2022/01/08 04:15:07;;;;;;;3.78;1.15;;;;;;;1.62;100.00;97936.38;4992514;28;20048;-77
2022/01/08 04:17:33;;;;;;;1.67;1.10;;;;;;;1.53;100.00;97925.72;4986701;28;20034;-77
2022/01/08 04:19:58;;;;;;;2.53;1.10;;;;;;;1.57;100.00;97934.19;4973036;28;20027;-77
2022/01/08 04:22:25;;;;;;;3.30;1.17;;;;;;;1.60;100.00;97949.03;4980484;28;20110;-77
2022/01/08 04:24:52;;;;;;;3.47;1.35;;;;;;;1.58;100.00;97951.88;4988599;28;20030;-77
2022/01/08 04:27:17;;;;;;;2.20;1.38;;;;;;;1.39;100.00;97929.06;4991413;28;20634;-77
2022/01/08 04:29:42;;;;;;;4.07;1.33;;;;;;;1.51;100.00;97956.19;4991050;28;20025;-77
2022/01/08 04:32:08;;;;;;;2.88;1.42;;;;;;;1.48;100.00;97956.53;4993161;28;20103;-77
2022/01/08 04:34:34;;;;;;;3.08;1.38;;;;;;;1.45;100.00;97957.69;4991680;28;20030;-77
2022/01/08 04:36:59;;;;;;;1.98;1.40;;;;;;;1.38;100.00;97950.53;4988737;28;20073;-77
2022/01/08 04:39:25;;;;;;;3.63;1.30;;;;;;;1.46;100.00;97967.34;4992676;28;20038;-75
2022/01/08 04:41:50;;;;;;;2.55;1.20;;;;;;;1.36;100.00;97958.69;4991312;28;20030;-77
2022/01/08 04:44:16;;;;;;;4.95;1.70;;;;;;;1.50;100.00;97976.69;4990956;28;20088;-75
2022/01/08 04:46:41;;;;;;;2.83;1.48;;;;;;;1.44;100.00;97974.72;4992569;28;20026;-75
2022/01/08 04:49:08;;;;;;;2.63;1.50;;;;;;;1.39;100.00;97970.84;4976529;28;20037;-75
2022/01/08 04:51:33;;;;;;;2.90;1.20;;;;;;;1.40;100.00;97989.34;4995441;28;20443;-75
2022/01/08 04:53:58;;;;;;;2.47;1.50;;;;;;;1.33;100.00;97972.34;4992476;28;20018;-75
2022/01/08 04:56:24;;;;;;;4.00;1.60;;;;;;;1.40;100.00;97988.53;4973652;28;20029;-75
2022/01/08 04:58:49;;;;;;;3.30;1.92;;;;;;;1.30;100.00;97983.34;4990203;28;20037;-75
2022/01/08 05:01:16;;;;;;;3.95;1.63;;;;;;;1.38;100.00;98002.00;4992410;28;20436;-75
2022/01/08 05:03:42;;;;;;;3.95;1.88;;;;;;;1.30;100.00;97994.00;4985847;28;20035;-76
2022/01/08 05:06:08;;;;;;;3.75;2.33;;;;;;;1.33;100.00;98008.81;4990625;28;20030;-75
2022/01/08 05:08:33;;;;;;;3.92;1.95;;;;;;;1.23;100.00;97975.19;4985972;28;20031;-75
2022/01/08 05:10:58;;;;;;;3.55;1.92;;;;;;;1.21;100.00;98000.31;4977173;28;20456;-78
2022/01/08 05:13:23;;;;;;;3.72;2.25;;;;;;;1.22;100.00;98018.78;4992884;28;20018;-75
2022/01/08 05:15:49;;;;;;;4.10;2.30;;;;;;;1.25;100.00;98020.31;4991873;28;20022;-75
2022/01/08 05:18:14;;;;;;;3.03;2.00;;;;;;;1.18;100.00;98024.59;4992800;28;20077;-75
2022/01/08 05:20:43;;;;;;;3.97;2.03;;;;;;;1.20;100.00;98034.09;4992420;28;20065;-76
2022/01/08 05:23:09;;;;;;;;;;;;;;;1.10;100.00;98041.41;4980815;28;20069;-74
2022/01/08 05:25:35;;;;;;;4.57;1.70;;;;;;;1.01;100.00;98042.38;4987022;28;19918;-72
2022/01/08 05:28:00;;;;;;;2.33;1.58;;;;;;;0.99;100.00;98034.53;4991194;28;20177;-72
2022/01/08 05:30:27;;;;;;;2.55;1.60;;;;;;;0.95;100.00;98038.53;4979288;28;20105;-73
2022/01/08 05:32:53;;;;;;;3.05;1.48;;;;;;;0.85;100.00;98029.84;4991755;28;20109;-75
2022/01/08 05:35:20;;;;;;;2.65;1.20;;;;;;;0.93;100.00;98056.50;4990749;28;20029;-72
2022/01/08 05:37:45;;;;;;;2.80;1.50;;;;;;;0.90;100.00;98035.53;4990688;28;20026;-75
2022/01/08 05:40:11;;;;;;;1.25;0.90;;;;;;;1.04;100.00;98056.19;4995359;28;20040;-74
2022/01/08 05:42:37;;;;;;;2.08;0.60;;;;;;;0.89;100.00;98033.84;4995597;28;20479;-74
2022/01/08 05:45:03;;;;;;;1.30;0.90;;;;;;;0.96;100.00;98050.03;4986718;28;20030;-77
2022/01/08 05:47:31;;;;;;;0.50;0.50;;;;;;;1.05;100.00;98059.72;4994002;28;20057;-73
2022/01/08 05:49:56;;;;;;;1.10;0.57;;;;;;;1.03;100.00;98054.53;4992660;28;20148;-74
2022/01/08 05:52:22;;;;;;;1.30;0.50;;;;;;;1.18;100.00;98083.22;4990782;28;20031;-72
2022/01/08 05:54:47;;;;;;;0.90;0.43;;;;;;;1.16;100.00;98082.56;4987019;28;20034;-75
2022/01/08 05:57:12;;;;;;;1.00;0.73;;;;;;;1.14;100.00;98093.38;4990562;28;20026;-75
2022/01/08 05:59:38;;;;;;;1.17;0.60;;;;;;;1.16;100.00;98098.56;4983899;28;20037;-74
2022/01/08 06:02:03;;;;;;;0.43;0.40;;;;;;;1.13;100.00;98096.19;4970812;28;20108;-77
2022/01/08 06:04:29;;;;;;;2.60;0.50;;;;;;;1.22;100.00;98122.72;4986194;28;20029;-76
2022/01/08 06:06:54;;;;;;;0.73;0.50;;;;;;;1.07;100.00;98093.19;4992163;28;20095;-75
2022/01/08 06:09:19;;;;;;;0.70;0.60;;;;;;;1.05;100.00;98113.81;4994750;28;20036;-76
2022/01/08 06:11:44;;;;;;;0.85;0.40;;;;;;;1.09;100.00;98123.16;4994642;28;20058;-75
2022/01/08 06:14:10;;;;;;;0.30;0.30;;;;;;;1.04;100.00;98144.09;4988106;28;20026;-74
2022/01/08 06:16:37;;;;;;;0.80;0.65;;;;;;;0.78;100.00;98138.81;4983852;28;20113;-73
2022/01/08 06:19:06;;;;;;;1.33;1.05;;;;;;;0.73;100.00;98164.22;4989828;28;20380;-73
2022/01/08 06:21:32;;;;;;;;;;;;;;;0.61;100.00;98190.28;4990865;28;20072;-72
2022/01/08 06:23:57;;;;;;;2.28;1.17;;;;;;;0.49;100.00;98167.56;4990357;28;19913;-75
2022/01/08 06:26:23;;;;;;;1.60;1.15;;;;;;;0.49;100.00;98186.19;4991052;28;20034;-75
2022/01/08 06:28:51;;;;;;;1.60;1.35;;;;;;;0.53;100.00;98201.72;4983713;28;20042;-73
2022/01/08 06:31:16;;;;;;;2.25;1.40;;;;;;;0.42;100.00;98186.00;4989915;28;20522;-75
2022/01/08 06:33:42;;;;;;;1.58;1.27;;;;;;;0.39;100.00;98197.78;4990232;28;20034;-73
2022/01/08 06:36:07;;;;;;;2.33;1.65;;;;;;;0.53;100.00;98240.81;4989613;28;20073;-74
2022/01/08 06:38:33;;;;;;;1.77;1.40;;;;;;;0.50;100.00;98244.59;4991628;28;20475;-72
2022/01/08 06:40:58;;;;;;;2.08;1.70;;;;;;;0.43;100.00;98249.69;4987624;28;20027;-72
2022/01/08 06:43:23;;;;;;;3.20;1.80;;;;;;;0.42;100.00;98247.19;4995845;28;20085;-75
2022/01/08 06:45:49;;;;;;;3.50;1.70;;;;;;;0.43;100.00;98263.00;4994356;28;20058;-74
2022/01/08 06:48:14;;;;;;;2.40;1.60;;;;;;;0.48;100.00;98275.84;4994960;28;20341;-74
2022/01/08 06:50:39;;;;;;;2.67;2.00;;;;;;;0.36;100.00;98261.09;4994151;28;20038;-77
2022/01/08 06:53:05;;;;;;;3.17;2.15;;;;;;;0.40;100.00;98281.09;4987390;28;20030;-74
2022/01/08 06:55:30;;;;;;;3.65;2.38;;;;;;;0.51;100.00;98320.78;4979509;28;20044;-72
2022/01/08 06:57:56;;;;;;;3.03;2.35;;;;;;;0.42;100.00;98301.25;4995867;28;20077;-72
2022/01/08 07:00:22;;;;;;;3.92;2.70;;;;;;;0.54;100.00;98336.44;4993056;28;20030;-72
2022/01/08 07:02:47;;;;;;;3.55;2.35;;;;;;;0.33;100.00;98298.66;4988547;28;20034;-74
2022/01/08 07:05:12;;;;;;;6.05;2.88;;;;;;;0.57;100.00;98354.78;4995847;28;20034;-74
2022/01/08 07:07:37;;;;;;;4.43;2.92;;;;;;;0.51;100.00;98350.06;4990322;28;20624;-73
2022/01/08 07:10:03;;;;;;;6.32;3.17;;;;;;;0.52;100.00;98353.56;4983426;28;20117;-73
2022/01/08 07:12:28;;;;;;;4.72;2.85;;;;;;;0.48;100.00;98350.38;4986832;28;20038;-73
2022/01/08 07:14:54;;;;;;;3.38;2.40;;;;;;;0.47;100.00;98362.00;4988059;28;20065;-74
2022/01/08 07:17:19;;;;;;;3.70;2.40;;;;;;;0.57;100.00;98396.53;4974332;28;20027;-73
2022/01/08 07:19:44;;;;;;;3.47;2.38;;;;;;;0.43;100.00;98374.78;4987728;28;20476;-76
2022/01/08 07:22:10;;;;;;;3.40;2.15;;;;;;;0.42;100.00;98388.25;4984823;28;20151;-74
2022/01/08 07:24:35;;;;;;;3.00;2.08;;;;;;;0.51;100.00;98408.63;4987852;28;20122;-74
2022/01/08 07:27:00;;;;;;;2.05;1.70;;;;;;;0.51;100.00;98418.44;4982486;28;20429;-74
2022/01/08 07:29:25;;;;;;;3.33;1.65;;;;;;;0.47;100.00;98423.19;4987457;28;20037;-74
2022/01/08 07:31:51;;;;;;;2.55;1.60;;;;;;;0.41;100.00;98418.47;4979140;28;20034;-74
2022/01/08 07:34:16;;;;;;;1.65;1.25;;;;;;;0.44;100.00;98434.97;4988860;28;20037;-74
2022/01/08 07:36:41;;;;;;;2.15;1.33;;;;;;;0.50;100.00;98443.34;4985405;28;20030;-74
2022/01/08 07:39:07;;;;;;;1.95;1.50;;;;;;;0.60;100.00;98466.31;4979220;28;20150;-74
2022/01/08 07:41:32;;;;;;;2.35;1.60;;;;;;;0.63;100.00;98491.78;4986004;28;20045;-74
2022/01/08 07:43:58;;;;;;;2.22;1.52;;;;;;;0.53;100.00;98464.38;4988335;28;20085;-74
2022/01/08 07:46:23;;;;;;;3.28;1.73;;;;;;;0.69;100.00;98498.34;4988114;28;20033;-73
2022/01/08 07:48:49;;;;;;;2.95;1.70;;;;;;;0.61;100.00;98485.78;4980929;28;20385;-75
2022/01/08 07:51:14;;;;;;;2.25;1.63;;;;;;;0.55;100.00;98475.69;4994195;28;20124;-73
2022/01/08 07:53:39;;;;;;;2.80;1.85;;;;;;;0.68;100.00;98509.97;4992968;28;20049;-73
2022/01/08 07:56:05;;;;;;;3.47;2.28;;;;;;;0.78;100.00;98524.91;4990737;28;20023;-73
2022/01/08 07:58:31;;;;;;;2.58;1.70;;;;;;;0.78;100.00;98530.22;4986149;28;20396;-73
2022/01/08 08:00:57;;;;;;;3.55;1.92;;;;;;;0.72;100.00;98516.69;4997484;28;20475;-73
2022/01/08 08:03:22;;;;;;;3.63;2.63;;;;;;;0.66;100.00;98526.09;4990138;28;20058;-74
2022/01/08 08:05:48;;;;;;;4.63;2.47;;;;;;;0.57;100.00;98525.13;4982773;28;20454;-75
2022/01/08 08:08:18;;;;;;;4.53;2.78;;;;;;;0.75;100.00;98553.66;4980818;28;20073;-74
2022/01/08 08:10:44;;;;;;;3.50;2.50;;;;;;;0.61;100.00;98534.53;4992002;28;20413;-74
2022/01/08 08:13:09;;;;;;;4.80;2.80;;;;;;;0.64;100.00;98530.72;4993384;28;20037;-75
2022/01/08 08:15:35;;;;;;;6.18;3.13;;;;;;;0.83;100.00;98572.41;4998603;28;20030;-75
2022/01/08 08:18:00;;;;;;;6.13;2.80;;;;;;;0.78;100.00;98566.66;4992621;28;20373;-75
2022/01/08 08:20:25;;;;;;;7.28;3.22;;;;;;;0.71;100.00;98563.78;4984163;28;20027;-76
2022/01/08 08:22:51;;;;;;;7.85;2.72;;;;;;;0.75;100.00;98574.97;4997240;28;20539;-73
2022/01/08 08:25:16;;;;;;;8.40;2.90;;;;;;;0.69;100.00;98557.75;5010748;28;20031;-73
2022/01/08 08:27:41;;;;;;;4.63;2.60;;;;;;;0.88;100.00;98594.09;5008816;28;20038;-72
2022/01/08 08:30:09;;;;;;;5.47;2.42;;;;;;;0.86;100.00;98594.25;5014111;28;20010;-72
2022/01/08 08:32:34;;;;;;;10.95;2.83;;;;;;;0.83;100.00;98580.38;5012168;28;20037;-72
2022/01/08 08:35:00;;;;;;;6.10;3.42;;;;;;;0.97;100.00;98605.69;4997112;28;20031;-72
2022/01/08 08:37:25;;;;;;;7.47;3.65;;;;;;;0.67;100.00;98582.84;4997448;28;20060;-72
2022/01/08 08:39:50;;;;;;;8.02;3.22;;;;;;;0.92;100.00;98598.16;4993588;28;20033;-71
2022/01/08 08:42:16;;;;;;;6.03;2.55;;;;;;;0.87;100.00;98584.44;4991031;28;20030;-72
2022/01/08 08:44:42;;;;;;;6.00;3.13;;;;;;;0.99;100.00;98609.03;4986610;28;20548;-72
2022/01/08 08:47:07;;;;;;;8.10;3.67;;;;;;;0.94;100.00;98595.34;4985440;28;20125;-72
2022/01/08 08:49:33;;;;;;;5.15;2.30;;;;;;;1.03;100.00;98613.09;4982742;28;20105;-76
2022/01/08 08:51:59;;;;;;;4.25;2.13;;;;;;;1.13;100.00;98610.38;4992470;28;20025;-75
2022/01/08 08:54:24;;;;;;;5.63;1.88;;;;;;;1.19;100.00;98620.47;4992921;28;20538;-75
2022/01/08 08:56:50;;;;;;;5.00;1.50;;;;;;;1.27;100.00;98621.38;4992511;28;20495;-75
2022/01/08 08:59:15;;;;;;;5.07;1.80;;;;;;;1.22;100.00;98620.16;4990564;28;20407;-74
2022/01/08 09:01:40;;;;;;;2.25;1.20;;;;;;;1.27;100.00;98607.22;4993505;28;20026;-75
2022/01/08 09:04:06;;;;;;;5.22;1.65;;;;;;;1.39;100.00;98605.19;4993654;28;20053;-75
2022/01/08 09:06:32;;;;;;;5.13;1.50;;;;;;;1.53;100.00;98621.50;4995500;28;20094;-74
2022/01/08 09:08:58;;;;;;;1.95;1.30;;;;;;;1.77;100.00;98641.41;5006707;28;20030;-72
2022/01/08 09:11:23;;;;;;;2.03;1.17;;;;;;;1.40;100.00;98618.38;5006751;28;20936;-71
2022/01/08 09:13:49;;;;;;;2.90;1.92;;;;;;;1.50;100.00;98637.81;5009635;28;20033;-73
2022/01/08 09:16:16;;;;;;;4.28;1.33;;;;;;;1.54;99.46;98625.84;5012553;28;20029;-73
2022/01/08 09:18:41;;;;;;;4.57;1.65;;;;;;;1.81;98.53;98645.47;4997064;28;20026;-72
2022/01/08 09:21:07;;;;;;;2.88;1.38;;;;;;;1.78;99.28;98624.41;4993457;28;20057;-72
2022/01/08 09:23:33;;;;;;;7.18;1.33;;;;;;;2.05;96.94;98649.38;5002636;28;20049;-73
2022/01/08 09:26:00;;;;;;;3.88;1.20;;;;;;;1.87;96.55;98642.19;5004025;28;20019;-73
2022/01/08 09:28:26;;;;;;;3.50;1.42;;;;;;;1.90;95.73;98649.88;5003103;28;20080;-75
2022/01/08 09:30:51;;;;;;;6.38;2.00;;;;;;;1.98;96.49;98655.28;4989525;28;20026;-75
2022/01/08 09:33:17;;;;;;;3.20;1.50;;;;;;;1.92;95.38;98663.09;4990440;28;20033;-74
2022/01/08 09:35:42;;;;;;;3.95;1.48;;;;;;;1.86;94.85;98655.66;4990172;28;20030;-72
2022/01/08 09:38:07;;;;;;;4.43;1.50;;;;;;;1.80;96.13;98650.94;4982828;28;20207;-74
2022/01/08 09:40:33;;;;;;;4.25;2.05;;;;;;;1.74;93.98;98626.56;4988116;28;20034;-73
2022/01/08 09:42:59;;;;;;;5.05;1.50;;;;;;;1.72;94.33;98659.69;4989655;28;20026;-74
2022/01/08 09:45:24;;;;;;;6.85;1.63;;;;;;;1.87;92.65;98663.53;4986058;28;20039;-74
2022/01/08 09:47:50;;;;;;;5.50;2.22;;;;;;;1.84;91.91;98663.84;4995377;28;20049;-74
2022/01/08 09:50:15;;;;;;;3.97;1.60;;;;;;;1.83;92.62;98667.47;5004624;28;20554;-77
2022/01/08 09:52:40;;;;;;;8.40;1.90;;;;;;;1.95;91.52;98663.59;5002679;28;20435;-72
2022/01/08 09:55:08;;;;;;;7.15;1.45;;;;;;;1.94;91.96;98669.13;5010788;28;20122;-72
2022/01/08 09:57:34;;;;;;;5.00;1.70;;;;;;;1.97;91.60;98669.63;5011206;28;20052;-69
2022/01/08 09:59:59;;;;;;;5.20;1.65;;;;;;;2.03;91.75;98662.84;5012939;28;20082;-71
2022/01/08 10:02:25;;;;;;;3.50;1.38;;;;;;;1.85;92.23;98676.19;5006662;28;20011;-70
2022/01/08 10:04:51;;;;;;;4.93;1.77;;;;;;;1.98;92.30;98668.63;5000688;28;20057;-71
2022/01/08 10:07:16;;;;;;;14.25;1.83;;;;;;;2.02;91.33;98671.84;5002963;28;20022;-71
2022/01/08 10:10:00;;;;;;;3.25;1.70;;;;;;;2.25;92.43;98674.88;5013918;28;20022;-71
2022/01/08 10:12:36;;;;;;;4.82;1.70;;;;;;;2.36;90.97;98685.34;5009938;28;20102;-72
2022/01/08 10:17:47;;;;;;;5.82;1.70;;;;;;;2.51;88.11;98682.09;4994191;28;20042;-71
2022/01/08 10:20:26;;;;;;;3.20;2.10;;;;;;;2.53;87.63;98680.97;4997621;28;20026;-71
2022/01/08 10:22:59;;;;;;;6.78;1.63;;;;;;;2.78;86.68;98681.16;4998524;28;20026;-71
2022/01/08 10:25:24;;;;;;;3.47;1.60;;;;;;;2.93;84.80;98689.41;5005038;28;20035;-72
2022/01/08 10:27:50;;;;;;;3.10;1.17;;;;;;;3.04;84.81;98689.16;5007925;28;20088;-71
2022/01/08 10:30:26;;;;;;;9.35;2.83;;;;;;;2.95;82.22;98666.88;5011714;28;20038;-71
2022/01/08 10:32:58;;;;;;;4.05;1.33;;;;;;;2.93;81.95;98692.91;4993215;28;20037;-72
2022/01/08 10:35:52;;;;;;;10.35;1.65;;;;;;;3.00;82.92;98693.13;5002121;28;20613;-72
2022/01/08 10:38:18;;;;;;;3.67;1.50;;;;;;;3.24;82.61;98690.59;4984535;28;20031;-72
2022/01/08 10:40:44;;;;;;;3.38;1.10;;;;;;;3.47;79.00;98679.34;4982694;28;20481;-71
2022/01/08 10:43:30;;;;;;;3.45;1.40;;;;;;;3.13;80.01;98684.69;4983104;28;20041;-71
2022/01/08 10:46:06;;;;;;;4.05;1.60;;;;;;;3.26;79.24;98667.22;4986334;28;20106;-71
2022/01/08 10:48:32;;;;;;;4.43;1.15;;;;;;;3.56;78.86;98681.03;4987905;28;20046;-71
2022/01/08 10:51:32;;;;;;;5.10;1.20;;;;;;;3.65;76.72;98688.09;4993041;28;20657;-71
2022/01/08 10:54:15;;;;;;;4.78;1.20;;;;;;;4.21;74.63;98690.22;4992916;28;20042;-72
2022/01/08 10:56:46;;;;;;;4.55;0.98;;;;;;;4.03;74.37;98682.34;4984444;28;20109;-72
2022/01/08 10:59:21;;;;;;;6.15;1.67;;;;;;;3.99;73.48;98679.16;4994998;28;20065;-71
2022/01/08 11:02:08;;;;;;;7.88;1.30;;;;;;;4.63;70.90;98691.91;4991808;28;20018;-72
2022/01/08 11:04:50;;;;;;;2.47;1.30;;;;;;;4.53;69.75;98667.97;4995254;28;20037;-71
2022/01/08 11:07:35;;;;;;;7.05;1.38;;;;;;;4.15;70.04;98673.00;4994650;28;20096;-71
2022/01/08 11:10:06;;;;;;;5.22;1.50;;;;;;;5.38;66.49;98670.16;4992208;28;20034;-71
2022/01/08 11:12:36;;;;;;;4.32;1.38;;;;;;;5.84;65.20;98665.75;4987160;28;20023;-71
2022/01/08 11:17:55;;;;;;;10.05;1.55;;;;;;;5.79;64.32;98654.72;4978735;28;20062;-71
2022/01/08 11:20:26;;;;;;;5.93;1.30;;;;;;;5.79;62.50;98648.47;4980222;28;20033;-71
2022/01/08 11:22:57;;;;;;;5.70;1.25;;;;;;;5.14;62.80;98636.22;4992081;28;20034;-71
2022/01/08 11:25:33;;;;;;;3.80;1.25;;;;;;;5.59;60.25;98656.16;4984851;28;20503;-71
2022/01/08 11:28:14;;;;;;;5.22;1.08;;;;;;;5.78;59.81;98644.97;4991749;28;20034;-71
2022/01/08 11:30:40;;;;;;;3.35;0.90;;;;;;;6.35;59.57;98641.09;4989082;28;20035;-71
2022/01/08 11:33:20;;;;;;;2.78;1.05;;;;;;;6.24;58.58;98623.56;4987566;28;20041;-71
2022/01/08 11:35:47;;;;;;;5.75;1.00;;;;;;;8.57;54.17;98626.56;4993218;28;20030;-71
2022/01/08 11:38:16;;;;;;;2.17;0.77;;;;;;;8.39;52.81;98635.13;4993322;28;20400;-72
2022/01/08 11:40:44;;;;;;;7.80;1.48;;;;;;;6.17;55.98;98613.72;4993525;28;20053;-71
2022/01/08 11:43:13;;;;;;;6.28;1.00;;;;;;;6.69;56.83;98637.94;4989496;28;20027;-72
2022/01/08 11:45:40;;;;;;;3.70;1.20;;;;;;;8.90;53.19;98625.97;4976349;28;20038;-71
2022/01/08 11:48:10;;;;;;;3.38;0.93;;;;;;;9.85;48.64;98619.81;4990570;28;20030;-71
2022/01/08 11:50:36;;;;;;;;;;;;;;;8.52;51.92;98627.16;4993182;28;20101;-72
2022/01/08 11:53:16;;;;;;;3.85;1.10;;;;;;;6.53;55.14;98611.22;4990226;28;20004;-71
2022/01/08 11:55:44;;;;;;;7.63;1.05;;;;;;;5.84;57.89;98617.44;4980390;28;20037;-71
2022/01/08 11:58:18;;;;;;;4.97;1.10;;;;;;;4.69;60.77;98621.56;4992334;28;20189;-71
2022/01/08 12:00:53;;;;;;;4.15;0.90;;;;;;;4.72;63.59;98621.25;4991518;28;20133;-71
2022/01/08 12:03:21;;;;;;;5.47;1.17;;;;;;;4.35;63.95;98622.63;4986378;28;20084;-71
2022/01/08 12:05:46;;;;;;;3.95;0.88;;;;;;;4.26;66.35;98620.94;4990904;28;20034;-71